createdAt,value
2022-11-03T00:03:16.530Z,6.92
2022-11-03T00:08:18.388Z,7.02
2022-11-03T00:13:20.186Z,7.01
2022-11-03T00:18:21.867Z,6.99
2022-11-03T00:23:25.741Z,6.98
2022-11-03T00:28:27.389Z,6.86
2022-11-03T00:33:32.861Z,6.84
2022-11-03T00:38:34.890Z,6.82
2022-11-03T00:43:36.861Z,6.83
2022-11-03T00:48:39.255Z,6.89
2022-11-03T00:53:46.208Z,6.93
2022-11-03T00:58:49.387Z,6.96
2022-11-03T01:04:13.868Z,7.00
2022-11-03T01:09:21.901Z,7.04
2022-11-03T01:14:25.679Z,6.97
2022-11-03T01:19:28.090Z,6.93
2022-11-03T01:24:29.897Z,6.72
2022-11-03T01:29:31.627Z,6.58
2022-11-03T01:34:33.421Z,6.59
2022-11-03T01:39:35.262Z,6.63
2022-11-03T01:44:42.005Z,6.71
2022-11-03T01:49:46.788Z,6.59
2022-11-03T01:54:53.874Z,6.43
2022-11-03T01:59:58.375Z,6.45
2022-11-03T02:05:02.756Z,6.26
2022-11-03T02:10:05.338Z,6.28
2022-11-03T02:15:13.696Z,6.39
2022-11-03T02:20:19.023Z,6.39
2022-11-03T02:25:50.767Z,6.26
2022-11-03T02:31:08.518Z,6.17
2022-11-03T02:36:17.933Z,6.22
2022-11-03T02:41:21.587Z,6.18
2022-11-03T02:46:26.179Z,6.21
2022-11-03T02:51:28.223Z,6.19
2022-11-03T02:56:31.756Z,6.12
2022-11-03T03:01:34.984Z,6.09
2022-11-03T03:06:42.891Z,6.10
2022-11-03T03:11:46.912Z,6.06
2022-11-03T03:17:13.278Z,5.88
2022-11-03T03:22:24.823Z,5.88
2022-11-03T03:27:29.613Z,5.94
2022-11-03T03:32:37.518Z,5.96
2022-11-03T03:37:45.260Z,5.89
2022-11-03T03:42:48.347Z,5.87
2022-11-03T03:47:53.655Z,5.78
2022-11-03T03:53:05.042Z,5.80
2022-11-03T03:58:10.595Z,5.80
2022-11-03T04:03:23.961Z,5.75
2022-11-03T04:08:25.830Z,5.78
2022-11-03T04:13:46.305Z,5.70
2022-11-03T04:19:06.584Z,5.55
2022-11-03T04:24:08.341Z,5.47
2022-11-03T04:29:11.801Z,5.54
2022-11-03T04:34:13.556Z,5.55
2022-11-03T04:39:20.196Z,5.63
2022-11-03T04:44:22.317Z,5.63
2022-11-03T04:49:24.156Z,5.68
2022-11-03T04:54:26.580Z,5.73
2022-11-03T04:59:28.782Z,5.68
2022-11-03T05:04:30.453Z,5.70
2022-11-03T05:09:32.262Z,5.80
2022-11-03T05:14:34.114Z,5.85
2022-11-03T05:19:42.016Z,5.85
2022-11-03T05:24:44.275Z,5.84
2022-11-03T05:29:46.108Z,5.91
2022-11-03T05:34:51.106Z,5.98
2022-11-03T05:39:55.609Z,5.89
2022-11-03T05:44:57.964Z,5.73
2022-11-03T05:50:14.612Z,5.66
2022-11-03T05:55:43.469Z,5.74
2022-11-03T06:00:48.617Z,5.89
2022-11-03T06:05:51.615Z,5.98
2022-11-03T06:10:55.333Z,6.05
2022-11-03T06:16:01.251Z,6.12
2022-11-03T06:21:12.637Z,6.13
2022-11-03T06:26:20.911Z,6.18
2022-11-03T06:31:31.609Z,6.23
2022-11-03T06:36:36.711Z,6.27
2022-11-03T06:41:38.416Z,6.26
2022-11-03T06:46:40.151Z,6.32
2022-11-03T06:51:41.781Z,6.37
2022-11-03T06:56:43.420Z,6.29
2022-11-03T07:01:48.487Z,6.31
2022-11-03T07:06:53.567Z,6.45
2022-11-03T07:11:59.544Z,6.33
2022-11-03T07:17:04.807Z,6.28
2022-11-03T07:22:16.624Z,6.45
2022-11-03T07:27:28.970Z,6.57
2022-11-03T07:32:33.272Z,6.56
2022-11-03T07:37:35.381Z,6.64
2022-11-03T07:42:37.049Z,6.68
2022-11-03T07:47:43.901Z,6.68
2022-11-03T07:52:45.960Z,6.65
2022-11-03T07:57:48.180Z,6.64
2022-11-03T08:02:58.294Z,6.75
2022-11-03T08:08:00.683Z,6.82
2022-11-03T08:13:02.361Z,6.89
2022-11-03T08:18:04.212Z,6.90
2022-11-03T08:23:24.740Z,6.98
2022-11-03T08:28:27.317Z,7.04
2022-11-03T08:38:31.326Z,7.31
2022-11-03T08:43:33.303Z,7.36
2022-11-03T08:48:35.170Z,7.42
2022-11-03T08:53:38.476Z,7.51
2022-11-03T08:58:40.733Z,7.65
2022-11-03T09:03:42.618Z,7.85
2022-11-03T09:14:06.338Z,8.41
2022-11-03T09:19:08.168Z,8.64
2022-11-03T09:24:10.477Z,8.84
2022-11-03T09:29:12.111Z,9.12
2022-11-03T09:34:13.969Z,9.31
2022-11-03T09:39:15.660Z,9.51
2022-11-03T09:44:17.667Z,9.66
2022-11-03T09:49:21.238Z,9.79
2022-11-03T09:54:23.104Z,9.93
2022-11-03T09:59:25.133Z,10.05
2022-11-03T10:04:28.407Z,10.11
2022-11-03T10:09:30.107Z,10.16
2022-11-03T10:14:31.723Z,10.19
2022-11-03T10:19:33.572Z,10.26
2022-11-03T10:24:35.849Z,10.35
2022-11-03T10:29:39.927Z,10.37
2022-11-03T10:34:42.995Z,10.38
2022-11-03T10:39:45.785Z,10.41
2022-11-03T10:44:48.329Z,10.50
2022-11-03T10:49:50.119Z,10.51
2022-11-03T10:54:54.608Z,10.51
2022-11-03T10:59:56.479Z,10.49
2022-11-03T11:05:01.340Z,10.51
2022-11-03T11:10:07.865Z,10.58
2022-11-03T11:15:36.540Z,10.63
2022-11-03T11:20:39.072Z,10.63
2022-11-03T11:26:05.857Z,10.56
2022-11-03T11:31:22.556Z,10.65
2022-11-03T11:36:25.396Z,10.71
2022-11-03T11:41:45.652Z,10.80
2022-11-03T11:46:47.468Z,10.86
2022-11-03T11:51:49.171Z,10.81
2022-11-03T11:56:51.022Z,10.75
2022-11-03T12:01:57.256Z,10.72
2022-11-03T12:06:59.474Z,10.82
2022-11-03T12:12:07.180Z,10.96
2022-11-03T12:17:15.927Z,11.02
2022-11-03T12:22:23.939Z,11.05
2022-11-03T12:27:25.666Z,11.07
2022-11-03T12:32:35.545Z,11.02
2022-11-03T12:37:37.596Z,11.09
2022-11-03T12:42:39.563Z,11.17
2022-11-03T12:47:41.461Z,11.22
2022-11-03T12:52:43.140Z,11.26
2022-11-03T12:57:45.849Z,11.22
2022-11-03T13:02:47.828Z,11.24
2022-11-03T13:07:49.686Z,11.10
2022-11-03T13:12:51.427Z,11.04
2022-11-03T13:18:12.262Z,11.01
2022-11-03T13:23:17.468Z,11.20
2022-11-03T13:28:22.040Z,11.35
2022-11-03T13:33:23.953Z,11.28
2022-11-03T13:38:25.652Z,11.25
2022-11-03T13:43:28.441Z,11.23
2022-11-03T13:59:29.204Z,11.38
2022-11-03T14:04:46.983Z,11.44
2022-11-03T14:09:48.781Z,11.52
2022-11-03T14:14:50.554Z,11.52
2022-11-03T14:19:55.575Z,11.52
2022-11-03T14:25:01.369Z,11.51
2022-11-03T14:30:04.222Z,11.47
2022-11-03T14:35:06.265Z,11.50
2022-11-03T14:40:28.564Z,11.52
2022-11-03T14:45:30.295Z,11.50
2022-11-03T14:50:32.160Z,11.52
2022-11-03T14:55:33.808Z,11.47
2022-11-03T15:00:35.517Z,11.47
2022-11-03T15:05:46.134Z,11.41
2022-11-03T15:10:48.136Z,11.24
2022-11-03T15:15:49.855Z,11.24
2022-11-03T15:20:51.476Z,11.17
2022-11-03T15:25:53.166Z,11.09
2022-11-03T15:30:54.820Z,10.89
2022-11-03T15:35:56.670Z,10.75
2022-11-03T15:41:15.462Z,10.71
2022-11-03T15:46:18.392Z,10.79
2022-11-03T15:51:20.285Z,10.86
2022-11-03T15:56:21.911Z,10.92
2022-11-03T16:01:23.902Z,10.94
2022-11-03T16:06:46.480Z,10.94
2022-11-03T16:11:47.559Z,10.94
2022-11-03T16:16:49.221Z,10.89
2022-11-03T16:21:51.625Z,10.78
2022-11-03T16:26:53.352Z,10.42
2022-11-03T16:31:55.010Z,10.41
2022-11-03T16:36:56.801Z,10.49
2022-11-03T16:41:58.849Z,10.41
2022-11-03T16:47:01.524Z,10.40
2022-11-03T16:52:03.406Z,10.45
2022-11-03T16:57:05.680Z,10.53
2022-11-03T17:02:10.853Z,10.59
2022-11-03T17:07:15.311Z,10.61
2022-11-03T17:12:17.070Z,10.67
2022-11-03T17:17:18.731Z,10.76
2022-11-03T17:22:22.198Z,10.83
2022-11-03T17:27:27.873Z,10.90
2022-11-03T17:32:36.815Z,10.94
2022-11-03T17:37:38.497Z,10.95
2022-11-03T17:42:40.299Z,10.98
2022-11-03T17:47:42.813Z,10.99
2022-11-03T17:52:46.421Z,11.03
2022-11-03T17:57:48.828Z,11.07
2022-11-03T18:02:51.414Z,11.09
2022-11-03T18:07:54.816Z,11.11
2022-11-03T18:13:18.297Z,11.12
2022-11-03T18:18:34.562Z,11.08
2022-11-03T18:23:36.253Z,11.09
2022-11-03T18:28:37.904Z,11.16
2022-11-03T18:33:39.611Z,11.20
2022-11-03T18:38:44.279Z,11.22
2022-11-03T18:43:45.989Z,11.26
2022-11-03T18:48:47.623Z,11.26
2022-11-03T18:53:49.297Z,11.27
2022-11-03T18:58:53.560Z,11.24
2022-11-03T19:03:56.563Z,11.28
2022-11-03T19:08:59.937Z,11.34
2022-11-03T19:14:01.736Z,11.29
2022-11-03T19:19:03.583Z,11.26
2022-11-03T19:24:05.486Z,11.21
2022-11-03T19:29:12.444Z,11.23
2022-11-03T19:34:20.864Z,10.95
2022-11-03T19:39:26.899Z,10.67
2022-11-03T19:44:28.850Z,10.55
2022-11-03T19:49:30.702Z,10.55
2022-11-03T19:54:32.379Z,10.57
2022-11-03T19:59:34.118Z,10.63
2022-11-03T20:04:35.860Z,10.72
2022-11-03T20:09:38.025Z,10.82
2022-11-03T20:14:39.685Z,10.91
2022-11-03T20:19:41.387Z,11.01
2022-11-03T20:24:45.320Z,11.12
2022-11-03T20:29:48.650Z,11.21
2022-11-03T20:34:50.537Z,11.26
2022-11-03T20:39:52.458Z,11.29
2022-11-03T20:44:54.665Z,11.20
2022-11-03T20:49:56.606Z,11.19
2022-11-03T20:54:58.822Z,11.12
2022-11-03T21:00:00.505Z,10.96
2022-11-03T21:05:02.249Z,10.88
2022-11-03T21:10:04.087Z,10.87
2022-11-03T21:15:36.331Z,10.83
2022-11-03T21:20:38.413Z,10.82
2022-11-03T21:25:40.294Z,10.71
2022-11-03T21:30:42.105Z,10.53
2022-11-03T21:35:45.675Z,10.61
2022-11-03T21:40:55.241Z,10.65
2022-11-03T21:46:11.919Z,10.71
2022-11-03T21:51:13.611Z,10.66
2022-11-03T21:56:15.930Z,10.62
2022-11-03T22:01:17.827Z,10.53
2022-11-03T22:06:19.963Z,10.54
2022-11-03T22:11:21.791Z,10.55
2022-11-03T22:16:36.676Z,10.58
2022-11-03T22:21:56.888Z,10.64
2022-11-03T22:27:00.486Z,10.59
2022-11-03T22:32:02.544Z,10.55
2022-11-03T22:37:04.413Z,10.51
2022-11-03T22:42:24.602Z,10.43
2022-11-03T22:47:26.709Z,10.23
2022-11-03T22:52:28.350Z,10.34
2022-11-03T22:57:30.037Z,10.44
2022-11-03T23:02:32.044Z,10.51
2022-11-03T23:07:41.272Z,10.43
2022-11-03T23:12:43.280Z,10.49
2022-11-03T23:18:03.299Z,10.63
2022-11-03T23:23:05.280Z,10.73
2022-11-03T23:28:07.122Z,10.71
2022-11-03T23:33:09.036Z,10.56
2022-11-03T23:38:11.293Z,10.49
2022-11-03T23:43:12.957Z,10.49
2022-11-03T23:48:33.229Z,10.48
2022-11-03T23:53:35.037Z,10.50
2022-11-03T23:58:36.799Z,10.48
